sensor_id;sensor_type;location;lat;lon;timestamp;pressure;altitude;pressure_sealevel;temperature;humidity
59289;BME280;45056;47.602;9.886;2023-04-24T00:01:42;92157.06;;;10.94;66.04
59289;BME280;45056;47.602;9.886;2023-04-24T00:04:10;92151.63;;;10.94;66.04
59289;BME280;45056;47.602;9.886;2023-04-24T00:06:40;92150.13;;;10.93;66.05
59289;BME280;45056;47.602;9.886;2023-04-24T00:09:09;92153.13;;;10.95;66.22
59289;BME280;45056;47.602;9.886;2023-04-24T00:11:38;92147.97;;;10.97;66.20
59289;BME280;45056;47.602;9.886;2023-04-24T00:14:06;92141.50;;;10.95;66.05
59289;BME280;45056;47.602;9.886;2023-04-24T00:16:34;92147.69;;;10.95;66.15
59289;BME280;45056;47.602;9.886;2023-04-24T00:19:02;92143.00;;;10.96;65.97
59289;BME280;45056;47.602;9.886;2023-04-24T00:21:32;92143.00;;;10.96;65.63
59289;BME280;45056;47.602;9.886;2023-04-24T00:24:00;92131.84;;;10.94;65.43
59289;BME280;45056;47.602;9.886;2023-04-24T00:26:28;92129.56;;;10.92;65.25
59289;BME280;45056;47.602;9.886;2023-04-24T00:28:57;92123.84;;;10.90;65.08
59289;BME280;45056;47.602;9.886;2023-04-24T00:31:25;92119.31;;;10.87;64.55
59289;BME280;45056;47.602;9.886;2023-04-24T00:33:53;92118.25;;;10.85;64.65
59289;BME280;45056;47.602;9.886;2023-04-24T00:36:21;92124.94;;;10.83;64.79
59289;BME280;45056;47.602;9.886;2023-04-24T00:38:49;92111.97;;;10.78;64.57
59289;BME280;45056;47.602;9.886;2023-04-24T00:41:17;92114.41;;;10.76;64.37
59289;BME280;45056;47.602;9.886;2023-04-24T00:43:45;92111.38;;;10.74;64.64
59289;BME280;45056;47.602;9.886;2023-04-24T00:46:16;92107.44;;;10.75;64.52
59289;BME280;45056;47.602;9.886;2023-04-24T00:48:44;92114.09;;;10.74;64.33
59289;BME280;45056;47.602;9.886;2023-04-24T00:51:12;92108.66;;;10.74;64.43
59289;BME280;45056;47.602;9.886;2023-04-24T00:53:41;92109.88;;;10.73;64.28
59289;BME280;45056;47.602;9.886;2023-04-24T00:56:09;92105.94;;;10.74;64.18
59289;BME280;45056;47.602;9.886;2023-04-24T00:58:38;92114.09;;;10.74;64.36
59289;BME280;45056;47.602;9.886;2023-04-24T01:01:06;92107.91;;;10.74;64.44
59289;BME280;45056;47.602;9.886;2023-04-24T01:03:35;92116.81;;;10.74;64.45
59289;BME280;45056;47.602;9.886;2023-04-24T01:06:05;92115.91;;;10.77;64.86
59289;BME280;45056;47.602;9.886;2023-04-24T01:08:34;92110.75;;;10.79;65.06
59289;BME280;45056;47.602;9.886;2023-04-24T01:11:04;92113.31;;;10.83;65.15
59289;BME280;45056;47.602;9.886;2023-04-24T01:13:33;92105.44;;;10.85;64.83
59289;BME280;45056;47.602;9.886;2023-04-24T01:16:01;92111.16;;;10.87;65.04
59289;BME280;45056;47.602;9.886;2023-04-24T01:18:30;92104.50;;;10.88;65.01
59289;BME280;45056;47.602;9.886;2023-04-24T01:21:03;92113.13;;;10.87;64.76
59289;BME280;45056;47.602;9.886;2023-04-24T01:23:34;92107.66;;;10.87;64.85
59289;BME280;45056;47.602;9.886;2023-04-24T01:26:02;92111.16;;;10.87;64.65
59289;BME280;45056;47.602;9.886;2023-04-24T01:28:31;92115.09;;;10.86;64.84
59289;BME280;45056;47.602;9.886;2023-04-24T01:30:59;92111.31;;;10.83;64.81
59289;BME280;45056;47.602;9.886;2023-04-24T01:33:27;92105.31;;;10.79;64.65
59289;BME280;45056;47.602;9.886;2023-04-24T01:35:56;92103.66;;;10.73;64.71
59289;BME280;45056;47.602;9.886;2023-04-24T01:38:25;92102.34;;;10.68;64.76
59289;BME280;45056;47.602;9.886;2023-04-24T01:40:54;92106.75;;;10.65;64.97
59289;BME280;45056;47.602;9.886;2023-04-24T01:43:24;92102.72;;;10.61;64.87
59289;BME280;45056;47.602;9.886;2023-04-24T01:45:52;92105.59;;;10.57;65.22
59289;BME280;45056;47.602;9.886;2023-04-24T01:48:20;92105.47;;;10.51;65.68
59289;BME280;45056;47.602;9.886;2023-04-24T01:50:48;92110.31;;;10.47;65.83
59289;BME280;45056;47.602;9.886;2023-04-24T01:53:16;92107.75;;;10.44;65.84
59289;BME280;45056;47.602;9.886;2023-04-24T01:55:44;92112.56;;;10.39;66.00
59289;BME280;45056;47.602;9.886;2023-04-24T01:58:14;92107.31;;;10.36;66.08
59289;BME280;45056;47.602;9.886;2023-04-24T02:00:42;92105.81;;;10.35;66.09
59289;BME280;45056;47.602;9.886;2023-04-24T02:03:10;92111.25;;;10.35;66.22
59289;BME280;45056;47.602;9.886;2023-04-24T02:05:38;92121.06;;;10.32;66.28
59289;BME280;45056;47.602;9.886;2023-04-24T02:08:06;92113.84;;;10.29;66.33
59289;BME280;45056;47.602;9.886;2023-04-24T02:10:34;92113.84;;;10.29;66.53
59289;BME280;45056;47.602;9.886;2023-04-24T02:13:02;92122.00;;;10.29;66.52
59289;BME280;45056;47.602;9.886;2023-04-24T02:15:32;92110.34;;;10.29;66.83
59289;BME280;45056;47.602;9.886;2023-04-24T02:18:00;92108.84;;;10.28;66.70
59289;BME280;45056;47.602;9.886;2023-04-24T02:20:28;92115.50;;;10.27;66.92
59289;BME280;45056;47.602;9.886;2023-04-24T02:22:56;92121.72;;;10.27;66.82
59289;BME280;45056;47.602;9.886;2023-04-24T02:25:24;92119.44;;;10.25;66.91
59289;BME280;45056;47.602;9.886;2023-04-24T02:27:52;92112.50;;;10.24;66.85
59289;BME280;45056;47.602;9.886;2023-04-24T02:30:20;92112.34;;;10.28;66.94
59289;BME280;45056;47.602;9.886;2023-04-24T02:32:49;92107.19;;;10.30;66.87
59289;BME280;45056;47.602;9.886;2023-04-24T02:35:17;92109.47;;;10.32;66.55
59289;BME280;45056;47.602;9.886;2023-04-24T02:37:45;92105.06;;;10.34;66.61
59289;BME280;45056;47.602;9.886;2023-04-24T02:40:14;92111.72;;;10.33;66.30
59289;BME280;45056;47.602;9.886;2023-04-24T02:42:42;92110.97;;;10.33;66.24
59289;BME280;45056;47.602;9.886;2023-04-24T02:45:10;92116.13;;;10.31;66.27
59289;BME280;45056;47.602;9.886;2023-04-24T02:47:39;92111.88;;;10.30;66.38
59289;BME280;45056;47.602;9.886;2023-04-24T02:50:09;92116.56;;;10.29;66.44
59289;BME280;45056;47.602;9.886;2023-04-24T02:52:37;92116.28;;;10.27;66.70
59289;BME280;45056;47.602;9.886;2023-04-24T02:55:06;92114.47;;;10.24;66.66
59289;BME280;45056;47.602;9.886;2023-04-24T02:57:35;92109.19;;;10.20;66.85
59289;BME280;45056;47.602;9.886;2023-04-24T03:00:04;92108.91;;;10.18;66.95
59289;BME280;45056;47.602;9.886;2023-04-24T03:02:33;92117.53;;;10.17;66.80
59289;BME280;45056;47.602;9.886;2023-04-24T03:05:01;92109.38;;;10.17;66.95
59289;BME280;45056;47.602;9.886;2023-04-24T03:07:32;92107.41;;;10.17;67.08
59289;BME280;45056;47.602;9.886;2023-04-24T03:10:00;92102.72;;;10.18;67.01
59289;BME280;45056;47.602;9.886;2023-04-24T03:12:28;92105.16;;;10.16;66.98
59289;BME280;45056;47.602;9.886;2023-04-24T03:14:56;92107.88;;;10.16;66.96
59289;BME280;45056;47.602;9.886;2023-04-24T03:17:24;92115.25;;;10.15;66.67
59289;BME280;45056;47.602;9.886;2023-04-24T03:19:52;92112.53;;;10.15;67.07
59289;BME280;45056;47.602;9.886;2023-04-24T03:22:20;92114.81;;;10.17;67.13
59289;BME280;45056;47.602;9.886;2023-04-24T03:24:49;92108.59;;;10.16;67.06
59289;BME280;45056;47.602;9.886;2023-04-24T03:27:17;92113.31;;;10.16;66.99
59289;BME280;45056;47.602;9.886;2023-04-24T03:29:45;92113.31;;;10.16;66.88
59289;BME280;45056;47.602;9.886;2023-04-24T03:32:13;92118.75;;;10.16;66.81
59289;BME280;45056;47.602;9.886;2023-04-24T03:34:41;92111.31;;;10.16;66.80
59289;BME280;45056;47.602;9.886;2023-04-24T03:37:09;92108.16;;;10.18;66.65
59289;BME280;45056;47.602;9.886;2023-04-24T03:39:37;92109.19;;;10.20;66.64
59289;BME280;45056;47.602;9.886;2023-04-24T03:42:06;92111.00;;;10.23;66.52
59289;BME280;45056;47.602;9.886;2023-04-24T03:44:34;92114.28;;;10.28;66.31
59289;BME280;45056;47.602;9.886;2023-04-24T03:47:03;92109.78;;;10.24;66.07
59289;BME280;45056;47.602;9.886;2023-04-24T03:49:31;92107.81;;;10.25;66.13
59289;BME280;45056;47.602;9.886;2023-04-24T03:51:59;92112.50;;;10.24;66.47
59289;BME280;45056;47.602;9.886;2023-04-24T03:54:27;92111.47;;;10.22;66.73
59289;BME280;45056;47.602;9.886;2023-04-24T03:56:56;92109.66;;;10.19;66.77
59289;BME280;45056;47.602;9.886;2023-04-24T03:59:25;92114.34;;;10.18;67.11
59289;BME280;45056;47.602;9.886;2023-04-24T04:01:53;92117.81;;;10.19;67.24
59289;BME280;45056;47.602;9.886;2023-04-24T04:04:21;92104.69;;;10.17;67.23
59289;BME280;45056;47.602;9.886;2023-04-24T04:06:50;92110.13;;;10.17;67.20
59289;BME280;45056;47.602;9.886;2023-04-24T04:09:18;92104.69;;;10.17;67.22
59289;BME280;45056;47.602;9.886;2023-04-24T04:11:46;92122.50;;;10.18;67.11
59289;BME280;45056;47.602;9.886;2023-04-24T04:14:14;92120.25;;;10.17;67.30
59289;BME280;45056;47.602;9.886;2023-04-24T04:16:43;92117.25;;;10.15;67.44
59289;BME280;45056;47.602;9.886;2023-04-24T04:19:11;92116.19;;;10.12;67.37
59289;BME280;45056;47.602;9.886;2023-04-24T04:21:39;92126.56;;;10.14;67.35
59289;BME280;45056;47.602;9.886;2023-04-24T04:24:07;92133.06;;;10.16;67.23
59289;BME280;45056;47.602;9.886;2023-04-24T04:26:36;92128.84;;;10.15;66.95
59289;BME280;45056;47.602;9.886;2023-04-24T04:29:04;92130.50;;;10.13;66.79
59289;BME280;45056;47.602;9.886;2023-04-24T04:31:33;92120.56;;;10.09;66.98
59289;BME280;45056;47.602;9.886;2023-04-24T04:34:02;92125.53;;;10.11;66.90
59289;BME280;45056;47.602;9.886;2023-04-24T04:36:30;92130.22;;;10.10;66.89
59289;BME280;45056;47.602;9.886;2023-04-24T04:38:59;92128.72;;;10.09;66.51
59289;BME280;45056;47.602;9.886;2023-04-24T04:41:27;92120.56;;;10.09;66.55
59289;BME280;45056;47.602;9.886;2023-04-24T04:43:55;92129.47;;;10.10;66.50
59289;BME280;45056;47.602;9.886;2023-04-24T04:46:25;92130.97;;;10.11;66.33
59289;BME280;45056;47.602;9.886;2023-04-24T04:48:53;92117.09;;;10.09;66.58
59289;BME280;45056;47.602;9.886;2023-04-24T04:51:24;92132.19;;;10.10;66.45
59289;BME280;45056;47.602;9.886;2023-04-24T04:53:52;92135.66;;;10.10;66.32
59289;BME280;45056;47.602;9.886;2023-04-24T04:56:20;92133.69;;;10.11;66.06
59289;BME280;45056;47.602;9.886;2023-04-24T04:58:48;92142.88;;;10.14;66.00
59289;BME280;45056;47.602;9.886;2023-04-24T05:01:16;92145.59;;;10.14;65.50
59289;BME280;45056;47.602;9.886;2023-04-24T05:03:44;92139.88;;;10.11;65.48
59289;BME280;45056;47.602;9.886;2023-04-24T05:06:12;92149.72;;;10.09;65.34
59289;BME280;45056;47.602;9.886;2023-04-24T05:08:42;92152.13;;;10.07;65.26
59289;BME280;45056;47.602;9.886;2023-04-24T05:11:10;92149.56;;;10.03;65.06
59289;BME280;45056;47.602;9.886;2023-04-24T05:13:38;92153.06;;;10.04;65.08
59289;BME280;45056;47.602;9.886;2023-04-24T05:16:06;92159.22;;;10.04;64.94
59289;BME280;45056;47.602;9.886;2023-04-24T05:18:34;92156.81;;;10.06;64.88
59289;BME280;45056;47.602;9.886;2023-04-24T05:21:02;92157.88;;;10.09;64.72
59289;BME280;45056;47.602;9.886;2023-04-24T05:23:31;92162.38;;;10.12;64.56
59289;BME280;45056;47.602;9.886;2023-04-24T05:26:00;92173.09;;;10.16;64.59
59289;BME280;45056;47.602;9.886;2023-04-24T05:28:29;92177.63;;;10.19;64.39
59289;BME280;45056;47.602;9.886;2023-04-24T05:30:57;92181.38;;;10.21;64.11
59289;BME280;45056;47.602;9.886;2023-04-24T05:33:25;92174.00;;;10.22;64.11
59289;BME280;45056;47.602;9.886;2023-04-24T05:35:53;92180.16;;;10.22;63.94
59289;BME280;45056;47.602;9.886;2023-04-24T05:38:21;92170.78;;;10.23;63.97
59289;BME280;45056;47.602;9.886;2023-04-24T05:40:49;92172.88;;;10.29;63.93
59289;BME280;45056;47.602;9.886;2023-04-24T05:43:19;92170.78;;;10.33;63.93
59289;BME280;45056;47.602;9.886;2023-04-24T05:45:47;92173.78;;;10.35;63.80
59289;BME280;45056;47.602;9.886;2023-04-24T05:48:15;92166.38;;;10.35;64.10
59289;BME280;45056;47.602;9.886;2023-04-24T05:50:43;92173.78;;;10.35;64.38
59289;BME280;45056;47.602;9.886;2023-04-24T05:53:11;92172.28;;;10.34;64.58
59289;BME280;45056;47.602;9.886;2023-04-24T05:55:39;92175.00;;;10.34;64.67
59289;BME280;45056;47.602;9.886;2023-04-24T05:58:07;92181.66;;;10.33;64.76
59289;BME280;45056;47.602;9.886;2023-04-24T06:00:37;92178.94;;;10.33;64.82
59289;BME280;45056;47.602;9.886;2023-04-24T06:03:06;92185.41;;;10.35;64.94
59289;BME280;45056;47.602;9.886;2023-04-24T06:05:34;92181.97;;;10.35;65.01
59289;BME280;45056;47.602;9.886;2023-04-24T06:08:02;92197.06;;;10.36;65.10
59289;BME280;45056;47.602;9.886;2023-04-24T06:10:30;92200.22;;;10.34;65.10
59289;BME280;45056;47.602;9.886;2023-04-24T06:12:58;92208.38;;;10.34;65.31
59289;BME280;45056;47.602;9.886;2023-04-24T06:15:28;92212.78;;;10.32;65.11
59289;BME280;45056;47.602;9.886;2023-04-24T06:17:59;92214.59;;;10.25;65.23
59289;BME280;45056;47.602;9.886;2023-04-24T06:20:27;92230.47;;;10.18;65.10
59289;BME280;45056;47.602;9.886;2023-04-24T06:22:55;92234.72;;;10.09;65.15
59289;BME280;45056;47.602;9.886;2023-04-24T06:25:24;92248.63;;;10.02;65.34
59289;BME280;45056;47.602;9.886;2023-04-24T06:27:53;92238.81;;;9.95;65.25
59289;BME280;45056;47.602;9.886;2023-04-24T06:30:22;92233.97;;;9.90;65.26
59289;BME280;45056;47.602;9.886;2023-04-24T06:32:50;92237.31;;;9.85;65.44
59289;BME280;45056;47.602;9.886;2023-04-24T06:35:20;92243.22;;;9.84;65.61
59289;BME280;45056;47.602;9.886;2023-04-24T06:37:48;92236.72;;;9.81;65.45
59289;BME280;45056;47.602;9.886;2023-04-24T06:40:16;92248.78;;;9.80;65.47
59289;BME280;45056;47.602;9.886;2023-04-24T06:42:45;92255.88;;;9.77;65.66
59289;BME280;45056;47.602;9.886;2023-04-24T06:45:13;92251.63;;;9.76;65.79
59289;BME280;45056;47.602;9.886;2023-04-24T06:47:41;92261.78;;;9.76;65.77
59289;BME280;45056;47.602;9.886;2023-04-24T06:50:09;92255.56;;;9.75;66.04
59289;BME280;45056;47.602;9.886;2023-04-24T06:52:40;92261.78;;;9.76;66.13
59289;BME280;45056;47.602;9.886;2023-04-24T06:55:08;92264.78;;;9.78;66.21
59289;BME280;45056;47.602;9.886;2023-04-24T06:57:37;92263.88;;;9.81;65.99
59289;BME280;45056;47.602;9.886;2023-04-24T07:00:06;92260.69;;;9.82;65.95
59289;BME280;45056;47.602;9.886;2023-04-24T07:02:36;92275.34;;;9.85;65.94
59289;BME280;45056;47.602;9.886;2023-04-24T07:05:04;92265.06;;;9.89;65.99
59289;BME280;45056;47.602;9.886;2023-04-24T07:07:34;92278.81;;;9.95;65.75
59289;BME280;45056;47.602;9.886;2023-04-24T07:10:06;92274.28;;;10.01;65.66
59289;BME280;45056;47.602;9.886;2023-04-24T07:12:35;92279.41;;;10.08;65.88
59289;BME280;45056;47.602;9.886;2023-04-24T07:15:05;92278.78;;;10.14;65.46
59289;BME280;45056;47.602;9.886;2023-04-24T07:17:34;92288.78;;;10.17;65.52
59289;BME280;45056;47.602;9.886;2023-04-24T07:20:02;92288.78;;;10.17;65.31
59289;BME280;45056;47.602;9.886;2023-04-24T07:22:31;92281.06;;;10.15;64.94
59289;BME280;45056;47.602;9.886;2023-04-24T07:24:59;92288.94;;;10.13;65.18
59289;BME280;45056;47.602;9.886;2023-04-24T07:27:29;92282.72;;;10.13;65.16
59289;BME280;45056;47.602;9.886;2023-04-24T07:29:57;92284.22;;;10.14;65.20
59289;BME280;45056;47.602;9.886;2023-04-24T07:32:25;92282.44;;;10.20;65.17
59289;BME280;45056;47.602;9.886;2023-04-24T07:34:53;92289.81;;;10.29;64.83
59289;BME280;45056;47.602;9.886;2023-04-24T07:37:22;92292.38;;;10.42;64.34
59289;BME280;45056;47.602;9.886;2023-04-24T07:39:50;92290.69;;;10.53;63.72
59289;BME280;45056;47.602;9.886;2023-04-24T07:42:19;92300.06;;;10.62;63.47
59289;BME280;45056;47.602;9.886;2023-04-24T07:44:48;92291.00;;;10.65;63.24
59289;BME280;45056;47.602;9.886;2023-04-24T07:47:17;92293.72;;;10.65;62.93
59289;BME280;45056;47.602;9.886;2023-04-24T07:49:45;92294.13;;;10.73;62.55
59289;BME280;45056;47.602;9.886;2023-04-24T07:52:14;92293.28;;;11.00;62.03
59289;BME280;45056;47.602;9.886;2023-04-24T07:54:42;92299.44;;;11.44;61.50
59289;BME280;45056;47.602;9.886;2023-04-24T07:57:10;92310.06;;;11.90;60.36
59289;BME280;45056;47.602;9.886;2023-04-24T07:59:38;92309.28;;;12.14;59.56
59289;BME280;45056;47.602;9.886;2023-04-24T08:02:07;92317.69;;;12.25;59.01
59289;BME280;45056;47.602;9.886;2023-04-24T08:04:36;92315.53;;;12.30;58.24
59289;BME280;45056;47.602;9.886;2023-04-24T08:07:04;92322.38;;;12.25;58.08
59289;BME280;45056;47.602;9.886;2023-04-24T08:09:32;92308.06;;;12.15;58.33
59289;BME280;45056;47.602;9.886;2023-04-24T08:12:00;92314.25;;;12.01;58.75
59289;BME280;45056;47.602;9.886;2023-04-24T08:14:28;92318.09;;;11.84;58.85
59289;BME280;45056;47.602;9.886;2023-04-24T08:16:56;92319.09;;;11.72;59.11
59289;BME280;45056;47.602;9.886;2023-04-24T08:19:28;92321.41;;;11.64;59.32
59289;BME280;45056;47.602;9.886;2023-04-24T08:21:56;92314.75;;;11.65;59.52
59289;BME280;45056;47.602;9.886;2023-04-24T08:24:24;92312.59;;;11.94;59.67
59289;BME280;45056;47.602;9.886;2023-04-24T08:26:52;92322.34;;;12.49;58.49
59289;BME280;45056;47.602;9.886;2023-04-24T08:29:23;92312.53;;;13.18;57.28
59289;BME280;45056;47.602;9.886;2023-04-24T08:31:51;92314.56;;;13.94;55.85
59289;BME280;45056;47.602;9.886;2023-04-24T08:34:20;92310.81;;;14.60;53.80
59289;BME280;45056;47.602;9.886;2023-04-24T08:36:50;92312.75;;;15.06;52.36
59289;BME280;45056;47.602;9.886;2023-04-24T08:39:18;92312.47;;;15.36;50.94
59289;BME280;45056;47.602;9.886;2023-04-24T08:41:48;92328.06;;;15.56;50.69
59289;BME280;45056;47.602;9.886;2023-04-24T08:44:19;92309.69;;;15.68;49.25
59289;BME280;45056;47.602;9.886;2023-04-24T08:46:48;92325.72;;;15.81;48.79
59289;BME280;45056;47.602;9.886;2023-04-24T08:49:18;92321.22;;;15.84;48.31
59289;BME280;45056;47.602;9.886;2023-04-24T08:51:46;92316.72;;;15.81;48.34
59289;BME280;45056;47.602;9.886;2023-04-24T08:54:18;92330.84;;;15.62;48.13
59289;BME280;45056;47.602;9.886;2023-04-24T08:56:48;92324.97;;;15.43;48.35
59289;BME280;45056;47.602;9.886;2023-04-24T08:59:16;92327.84;;;15.28;49.21
59289;BME280;45056;47.602;9.886;2023-04-24T09:01:48;92318.94;;;15.33;48.55
59289;BME280;45056;47.602;9.886;2023-04-24T09:04:20;92317.69;;;15.34;47.79
59289;BME280;45056;47.602;9.886;2023-04-24T09:06:52;92308.31;;;15.47;47.58
59289;BME280;45056;47.602;9.886;2023-04-24T09:09:26;92319.84;;;15.56;47.87
59289;BME280;45056;47.602;9.886;2023-04-24T09:11:58;92324.53;;;15.50;47.02
59289;BME280;45056;47.602;9.886;2023-04-24T09:14:27;92338.34;;;15.29;46.82
59289;BME280;45056;47.602;9.886;2023-04-24T09:16:57;92342.75;;;14.89;47.58
59289;BME280;45056;47.602;9.886;2023-04-24T09:19:25;92345.88;;;14.35;48.58
59289;BME280;45056;47.602;9.886;2023-04-24T09:21:54;92348.94;;;13.80;50.34
59289;BME280;45056;47.602;9.886;2023-04-24T09:24:22;92373.47;;;13.24;51.86
59289;BME280;45056;47.602;9.886;2023-04-24T09:26:57;92400.63;;;12.58;52.52
59289;BME280;45056;47.602;9.886;2023-04-24T09:29:28;92391.19;;;11.95;53.42
59289;BME280;45056;47.602;9.886;2023-04-24T09:31:56;92405.22;;;11.45;54.70
59289;BME280;45056;47.602;9.886;2023-04-24T09:34:26;92408.81;;;11.08;55.31
59289;BME280;45056;47.602;9.886;2023-04-24T09:36:54;92400.09;;;10.76;56.29
59289;BME280;45056;47.602;9.886;2023-04-24T09:39:22;92393.63;;;10.55;57.17
59289;BME280;45056;47.602;9.886;2023-04-24T09:41:52;92401.00;;;10.36;58.00
59289;BME280;45056;47.602;9.886;2023-04-24T09:44:25;92390.41;;;10.19;58.19
59289;BME280;45056;47.602;9.886;2023-04-24T09:46:56;92380.56;;;10.03;57.99
59289;BME280;45056;47.602;9.886;2023-04-24T09:49:26;92392.34;;;9.91;58.49
59289;BME280;45056;47.602;9.886;2023-04-24T09:52:03;92396.69;;;9.79;58.97
59289;BME280;45056;47.602;9.886;2023-04-24T09:54:32;92400.91;;;9.71;59.53
59289;BME280;45056;47.602;9.886;2023-04-24T09:57:03;92396.03;;;9.65;60.10
59289;BME280;45056;47.602;9.886;2023-04-24T09:59:32;92399.97;;;9.64;60.52
59289;BME280;45056;47.602;9.886;2023-04-24T10:02:00;92402.13;;;9.70;60.63
59289;BME280;45056;47.602;9.886;2023-04-24T10:04:28;92400.63;;;9.87;61.40
59289;BME280;45056;47.602;9.886;2023-04-24T10:06:57;92398.09;;;10.02;60.94
59289;BME280;45056;47.602;9.886;2023-04-24T10:09:26;92397.66;;;10.13;60.94
59289;BME280;45056;47.602;9.886;2023-04-24T10:11:54;92402.97;;;10.17;61.03
59289;BME280;45056;47.602;9.886;2023-04-24T10:14:24;92407.94;;;10.18;60.93
59289;BME280;45056;47.602;9.886;2023-04-24T10:16:55;92409.00;;;10.21;61.13
59289;BME280;45056;47.602;9.886;2023-04-24T10:19:26;92409.75;;;10.21;61.49
59289;BME280;45056;47.602;9.886;2023-04-24T10:21:54;92395.25;;;10.24;61.49
59289;BME280;45056;47.602;9.886;2023-04-24T10:24:25;92401.75;;;10.27;61.50
59289;BME280;45056;47.602;9.886;2023-04-24T10:26:54;92408.84;;;10.34;61.26
59289;BME280;45056;47.602;9.886;2023-04-24T10:29:24;92411.91;;;10.45;60.03
59289;BME280;45056;47.602;9.886;2023-04-24T10:31:55;92415.22;;;10.59;60.34
59289;BME280;45056;47.602;9.886;2023-04-24T10:34:24;92422.00;;;10.73;59.30
59289;BME280;45056;47.602;9.886;2023-04-24T10:36:56;92426.69;;;10.81;58.54
59289;BME280;45056;47.602;9.886;2023-04-24T10:39:25;92419.88;;;10.86;58.84
59289;BME280;45056;47.602;9.886;2023-04-24T10:41:53;92430.91;;;10.92;58.85
59289;BME280;45056;47.602;9.886;2023-04-24T10:44:24;92435.16;;;10.93;58.55
59289;BME280;45056;47.602;9.886;2023-04-24T10:46:55;92442.56;;;10.92;58.72
59289;BME280;45056;47.602;9.886;2023-04-24T10:49:30;92428.78;;;10.96;58.94
59289;BME280;45056;47.602;9.886;2023-04-24T10:52:02;92440.72;;;11.08;58.87
59289;BME280;45056;47.602;9.886;2023-04-24T10:54:35;92445.38;;;11.26;58.78
59289;BME280;45056;47.602;9.886;2023-04-24T10:57:27;92445.59;;;11.47;58.01
59289;BME280;45056;47.602;9.886;2023-04-24T11:00:14;92448.72;;;11.64;57.89
59289;BME280;45056;47.602;9.886;2023-04-24T11:02:48;92445.22;;;11.73;57.29
59289;BME280;45056;47.602;9.886;2023-04-24T11:05:20;92432.44;;;11.79;56.69
59289;BME280;45056;47.602;9.886;2023-04-24T11:08:10;92432.88;;;11.87;56.23
59289;BME280;45056;47.602;9.886;2023-04-24T11:10:45;92438.91;;;11.91;56.18
59289;BME280;45056;47.602;9.886;2023-04-24T11:13:21;92433.47;;;11.91;56.04
59289;BME280;45056;47.602;9.886;2023-04-24T11:19:03;92447.31;;;11.78;55.90
59289;BME280;45056;47.602;9.886;2023-04-24T11:21:39;92447.34;;;11.68;56.15
59289;BME280;45056;47.602;9.886;2023-04-24T11:24:26;92441.94;;;11.59;56.14
59289;BME280;45056;47.602;9.886;2023-04-24T11:26:59;92439.22;;;11.50;55.86
59289;BME280;45056;47.602;9.886;2023-04-24T11:29:42;92439.56;;;11.43;56.54
59289;BME280;45056;47.602;9.886;2023-04-24T11:32:26;92443.53;;;11.32;56.61
59289;BME280;45056;47.602;9.886;2023-04-24T11:34:58;92440.38;;;11.24;56.85
59289;BME280;45056;47.602;9.886;2023-04-24T11:37:33;92442.34;;;11.24;56.98
59289;BME280;45056;47.602;9.886;2023-04-24T11:40:05;92434.75;;;11.37;58.02
59289;BME280;45056;47.602;9.886;2023-04-24T11:42:35;92433.78;;;11.59;57.07
59289;BME280;45056;47.602;9.886;2023-04-24T11:45:08;92435.66;;;11.77;57.14
59289;BME280;45056;47.602;9.886;2023-04-24T11:47:38;92427.84;;;11.94;56.09
59289;BME280;45056;47.602;9.886;2023-04-24T11:50:11;92428.97;;;12.12;55.50
59289;BME280;45056;47.602;9.886;2023-04-24T11:52:41;92438.16;;;12.24;55.11
59289;BME280;45056;47.602;9.886;2023-04-24T11:55:23;92429.44;;;12.35;55.24
59289;BME280;45056;47.602;9.886;2023-04-24T11:57:55;92427.81;;;12.52;54.86
59289;BME280;45056;47.602;9.886;2023-04-24T12:00:27;92423.78;;;12.63;54.55
59289;BME280;45056;47.602;9.886;2023-04-24T12:03:05;92426.16;;;12.70;54.61
59289;BME280;45056;47.602;9.886;2023-04-24T12:05:36;92432.75;;;12.78;53.58
59289;BME280;45056;47.602;9.886;2023-04-24T12:08:04;92430.94;;;12.75;52.23
59289;BME280;45056;47.602;9.886;2023-04-24T12:10:34;92419.66;;;12.67;51.17
59289;BME280;45056;47.602;9.886;2023-04-24T12:13:02;92425.28;;;12.64;51.50
59289;BME280;45056;47.602;9.886;2023-04-24T12:15:31;92422.28;;;12.62;51.02
59289;BME280;45056;47.602;9.886;2023-04-24T12:17:59;92429.53;;;12.65;51.18
59289;BME280;45056;47.602;9.886;2023-04-24T12:20:29;92427.28;;;12.78;52.40
59289;BME280;45056;47.602;9.886;2023-04-24T12:23:01;92430.63;;;12.97;51.81
59289;BME280;45056;47.602;9.886;2023-04-24T12:25:31;92427.31;;;13.08;50.60
59289;BME280;45056;47.602;9.886;2023-04-24T12:28:09;92433.38;;;13.12;49.95
59289;BME280;45056;47.602;9.886;2023-04-24T12:30:41;92432.88;;;13.14;49.86
59289;BME280;45056;47.602;9.886;2023-04-24T12:33:11;92440.22;;;13.08;49.13
59289;BME280;45056;47.602;9.886;2023-04-24T12:35:40;92428.19;;;12.99;49.77
59289;BME280;45056;47.602;9.886;2023-04-24T12:38:11;92438.81;;;12.97;49.84
59289;BME280;45056;47.602;9.886;2023-04-24T12:40:41;92439.44;;;12.92;49.53
59289;BME280;45056;47.602;9.886;2023-04-24T12:43:14;92438.44;;;12.90;49.91
59289;BME280;45056;47.602;9.886;2023-04-24T12:45:43;92439.94;;;12.91;49.71
59289;BME280;45056;47.602;9.886;2023-04-24T12:48:11;92443.59;;;12.88;49.42
59289;BME280;45056;47.602;9.886;2023-04-24T12:50:41;92429.84;;;12.82;48.93
59289;BME280;45056;47.602;9.886;2023-04-24T12:53:10;92429.09;;;12.81;49.42
59289;BME280;45056;47.602;9.886;2023-04-24T12:55:38;92434.56;;;12.81;49.80
59289;BME280;45056;47.602;9.886;2023-04-24T12:58:07;92430.31;;;12.80;50.41
59289;BME280;45056;47.602;9.886;2023-04-24T13:00:35;92431.34;;;12.83;50.07
59289;BME280;45056;47.602;9.886;2023-04-24T13:03:04;92424.50;;;12.88;50.19
59289;BME280;45056;47.602;9.886;2023-04-24T13:05:32;92433.53;;;12.94;49.48
59289;BME280;45056;47.602;9.886;2023-04-24T13:08:00;92435.31;;;12.97;49.18
59289;BME280;45056;47.602;9.886;2023-04-24T13:10:30;92430.44;;;13.01;49.23
59289;BME280;45056;47.602;9.886;2023-04-24T13:12:58;92435.50;;;13.08;49.00
59289;BME280;45056;47.602;9.886;2023-04-24T13:15:26;92428.38;;;13.11;49.02